createdAt,value
2019-01-29T00:00:47.495Z,100.00
2019-01-29T00:03:16.966Z,100.00
2019-01-29T00:05:46.319Z,100.00
2019-01-29T00:08:15.602Z,100.00
2019-01-29T00:10:44.913Z,100.00
2019-01-29T00:13:14.203Z,100.00
2019-01-29T00:15:43.515Z,100.00
2019-01-29T00:18:12.796Z,100.00
2019-01-29T00:20:42.102Z,100.00
2019-01-29T00:23:11.395Z,100.00
2019-01-29T00:25:40.754Z,100.00
2019-01-29T00:28:10.072Z,100.00
2019-01-29T00:30:39.399Z,100.00
2019-01-29T00:33:08.687Z,100.00
2019-01-29T00:35:37.991Z,100.00
2019-01-29T00:38:07.296Z,100.00
2019-01-29T00:40:36.624Z,100.00
2019-01-29T00:43:06.010Z,100.00
2019-01-29T00:45:35.305Z,100.00
2019-01-29T00:48:05.063Z,100.00
2019-01-29T00:50:34.352Z,100.00
2019-01-29T00:53:03.733Z,100.00
2019-01-29T00:55:33.043Z,100.00
2019-01-29T00:58:02.481Z,100.00
2019-01-29T01:00:32.274Z,100.00
2019-01-29T01:03:02.310Z,100.00
2019-01-29T01:05:31.791Z,100.00
2019-01-29T01:08:01.097Z,100.00
2019-01-29T01:10:30.462Z,100.00
2019-01-29T01:12:59.793Z,100.00
2019-01-29T01:15:29.433Z,100.00
2019-01-29T01:17:58.768Z,100.00
2019-01-29T01:20:28.126Z,100.00
2019-01-29T01:22:57.504Z,100.00
2019-01-29T01:25:26.817Z,100.00
2019-01-29T01:27:56.133Z,100.00
2019-01-29T01:30:25.576Z,100.00
2019-01-29T01:32:54.884Z,100.00
2019-01-29T01:35:24.260Z,100.00
2019-01-29T01:37:53.659Z,100.00
2019-01-29T01:40:23.889Z,100.00
2019-01-29T01:42:53.490Z,100.00
2019-01-29T01:45:23.050Z,100.00
2019-01-29T01:47:52.711Z,100.00
2019-01-29T01:50:21.995Z,100.00
2019-01-29T01:52:58.958Z,100.00
2019-01-29T01:55:22.333Z,100.00
2019-01-29T01:57:51.990Z,100.00
2019-01-29T02:00:22.622Z,100.00
2019-01-29T02:02:52.157Z,100.00
2019-01-29T02:05:21.458Z,100.00
2019-01-29T02:07:50.922Z,100.00
2019-01-29T02:10:23.367Z,100.00
2019-01-29T02:12:53.038Z,100.00
2019-01-29T02:15:23.354Z,100.00
2019-01-29T02:17:52.788Z,100.00
2019-01-29T02:20:22.263Z,100.00
2019-01-29T02:22:51.857Z,100.00
2019-01-29T02:25:21.296Z,100.00
2019-01-29T02:27:50.663Z,100.00
2019-01-29T02:30:22.530Z,100.00
2019-01-29T02:32:51.935Z,100.00
2019-01-29T02:35:21.230Z,100.00
2019-01-29T02:37:50.624Z,100.00
2019-01-29T02:40:22.905Z,100.00
2019-01-29T02:42:52.474Z,100.00
2019-01-29T02:45:23.350Z,100.00
2019-01-29T02:47:52.749Z,100.00
2019-01-29T02:50:22.267Z,100.00
2019-01-29T02:52:51.635Z,100.00
2019-01-29T02:55:21.017Z,100.00
2019-01-29T02:57:50.319Z,100.00
2019-01-29T03:00:22.387Z,100.00
2019-01-29T03:02:51.967Z,100.00
2019-01-29T03:05:21.991Z,100.00
2019-01-29T03:07:52.545Z,100.00
2019-01-29T03:10:24.490Z,100.00
2019-01-29T03:12:53.796Z,100.00
2019-01-29T03:15:29.000Z,100.00
2019-01-29T03:17:59.169Z,100.00
2019-01-29T03:20:28.716Z,100.00
2019-01-29T03:22:58.096Z,100.00
2019-01-29T03:25:27.536Z,100.00
2019-01-29T03:27:56.832Z,100.00
2019-01-29T03:30:26.226Z,100.00
2019-01-29T03:32:55.642Z,100.00
2019-01-29T03:35:24.989Z,100.00
2019-01-29T03:37:54.371Z,100.00
2019-01-29T03:40:27.908Z,100.00
2019-01-29T03:42:57.293Z,100.00
2019-01-29T03:45:26.730Z,100.00
2019-01-29T03:47:56.121Z,100.00
2019-01-29T03:50:25.963Z,100.00
2019-01-29T03:52:55.271Z,100.00
2019-01-29T03:55:24.630Z,100.00
2019-01-29T03:57:53.954Z,100.00
2019-01-29T04:00:26.548Z,100.00
2019-01-29T04:02:56.337Z,100.00
2019-01-29T04:05:26.024Z,100.00
2019-01-29T04:07:55.591Z,100.00
2019-01-29T04:10:25.224Z,100.00
2019-01-29T04:12:54.572Z,100.00
2019-01-29T04:15:24.444Z,100.00
2019-01-29T04:17:56.320Z,100.00
2019-01-29T04:20:26.339Z,100.00
2019-01-29T04:22:55.702Z,100.00
2019-01-29T04:25:25.452Z,100.00
2019-01-29T04:27:54.752Z,100.00
2019-01-29T04:30:24.613Z,100.00
2019-01-29T04:32:53.906Z,100.00
2019-01-29T04:35:23.291Z,100.00
2019-01-29T04:37:52.782Z,100.00
2019-01-29T04:40:22.153Z,100.00
2019-01-29T04:42:51.884Z,100.00
2019-01-29T04:45:21.290Z,100.00
2019-01-29T04:47:50.743Z,100.00
2019-01-29T04:50:21.321Z,100.00
2019-01-29T04:52:51.282Z,100.00
2019-01-29T04:55:21.245Z,100.00
2019-01-29T04:57:51.213Z,100.00
2019-01-29T05:00:23.120Z,100.00
2019-01-29T05:02:52.942Z,100.00
2019-01-29T05:05:22.778Z,100.00
2019-01-29T05:07:52.360Z,100.00
2019-01-29T05:10:22.785Z,100.00
2019-01-29T05:12:52.462Z,100.00
2019-01-29T05:15:22.193Z,100.00
2019-01-29T05:17:51.513Z,100.00
2019-01-29T05:20:22.288Z,100.00
2019-01-29T05:22:51.733Z,100.00
2019-01-29T05:25:21.386Z,100.00
2019-01-29T05:27:50.768Z,100.00
2019-01-29T05:30:22.930Z,100.00
2019-01-29T05:32:52.615Z,100.00
2019-01-29T05:35:22.265Z,100.00
2019-01-29T05:37:51.766Z,100.00
2019-01-29T05:40:23.192Z,100.00
2019-01-29T05:42:52.960Z,100.00
2019-01-29T05:45:23.209Z,100.00
2019-01-29T05:47:52.534Z,100.00
2019-01-29T05:50:21.895Z,100.00
2019-01-29T05:52:51.221Z,100.00
2019-01-29T05:55:20.581Z,100.00
2019-01-29T05:57:50.043Z,100.00
2019-01-29T06:00:23.195Z,100.00
2019-01-29T06:02:52.549Z,100.00
2019-01-29T06:05:22.400Z,100.00
2019-01-29T06:07:51.708Z,100.00
2019-01-29T06:10:21.009Z,100.00
2019-01-29T06:12:50.308Z,100.00
2019-01-29T06:15:22.255Z,100.00
2019-01-29T06:17:51.608Z,100.00
2019-01-29T06:20:23.947Z,100.00
2019-01-29T06:22:53.300Z,100.00
2019-01-29T06:25:22.694Z,100.00
2019-01-29T06:27:52.644Z,100.00
2019-01-29T06:30:24.778Z,100.00
2019-01-29T06:32:54.548Z,100.00
2019-01-29T06:35:24.181Z,100.00
2019-01-29T06:37:53.510Z,100.00
2019-01-29T06:40:29.752Z,100.00
2019-01-29T06:42:59.053Z,100.00
2019-01-29T06:45:28.876Z,100.00
2019-01-29T06:47:58.161Z,100.00
2019-01-29T06:50:28.153Z,100.00
2019-01-29T06:52:57.608Z,100.00
2019-01-29T06:55:27.373Z,100.00
2019-01-29T06:57:56.758Z,100.00
2019-01-29T07:00:30.720Z,100.00
2019-01-29T07:03:01.250Z,100.00
2019-01-29T07:05:31.205Z,100.00
2019-01-29T07:08:00.502Z,100.00
2019-01-29T07:10:30.367Z,100.00
2019-01-29T07:12:59.767Z,100.00
2019-01-29T07:15:48.105Z,100.00
2019-01-29T07:18:28.560Z,100.00
2019-01-29T07:20:58.172Z,100.00
2019-01-29T07:23:27.499Z,100.00
2019-01-29T07:25:56.868Z,100.00
2019-01-29T07:28:26.259Z,100.00
2019-01-29T07:30:55.656Z,100.00
2019-01-29T07:33:24.989Z,100.00
2019-01-29T07:35:54.288Z,100.00
2019-01-29T07:38:23.618Z,100.00
2019-01-29T07:40:52.965Z,100.00
2019-01-29T07:43:22.297Z,100.00
2019-01-29T07:45:51.589Z,100.00
2019-01-29T07:48:20.918Z,100.00
2019-01-29T07:50:50.303Z,100.00
2019-01-29T07:53:19.704Z,100.00
2019-01-29T07:55:49.013Z,100.00
2019-01-29T07:58:18.330Z,100.00
2019-01-29T08:00:47.688Z,100.00
2019-01-29T08:03:17.035Z,100.00
2019-01-29T08:05:46.330Z,100.00
2019-01-29T08:08:15.997Z,100.00
2019-01-29T08:10:45.565Z,100.00
2019-01-29T08:13:15.023Z,100.00
2019-01-29T08:15:44.348Z,100.00
2019-01-29T08:18:13.641Z,100.00
2019-01-29T08:20:43.104Z,100.00
2019-01-29T08:23:12.428Z,100.00
2019-01-29T08:25:47.594Z,100.00
2019-01-29T08:28:12.761Z,100.00
2019-01-29T08:30:42.117Z,100.00
2019-01-29T08:33:11.479Z,100.00
2019-01-29T08:35:41.629Z,100.00
2019-01-29T08:38:11.398Z,100.00
2019-01-29T08:40:40.735Z,100.00
2019-01-29T08:43:10.180Z,100.00
2019-01-29T08:45:39.575Z,100.00
2019-01-29T08:48:08.862Z,100.00
2019-01-29T08:50:38.289Z,100.00
2019-01-29T08:53:07.629Z,100.00
2019-01-29T08:55:37.085Z,100.00
2019-01-29T08:58:06.469Z,100.00
2019-01-29T09:00:35.885Z,100.00
2019-01-29T09:03:05.721Z,100.00
2019-01-29T09:05:35.057Z,100.00
2019-01-29T09:08:04.697Z,100.00
2019-01-29T09:10:34.109Z,100.00
2019-01-29T09:13:03.407Z,100.00
2019-01-29T09:15:32.858Z,100.00
2019-01-29T09:18:02.197Z,100.00
2019-01-29T09:20:31.508Z,100.00
2019-01-29T09:23:00.822Z,100.00
2019-01-29T09:25:30.121Z,100.00
2019-01-29T09:27:59.422Z,100.00
2019-01-29T09:30:28.714Z,100.00
2019-01-29T09:32:58.018Z,100.00
2019-01-29T09:35:27.366Z,100.00
2019-01-29T09:37:56.692Z,100.00
2019-01-29T09:40:26.051Z,100.00
2019-01-29T09:42:55.431Z,100.00
2019-01-29T09:45:24.788Z,100.00
2019-01-29T09:47:54.179Z,100.00
2019-01-29T09:50:24.582Z,100.00
2019-01-29T09:52:54.274Z,100.00
2019-01-29T09:55:29.475Z,100.00
2019-01-29T09:57:55.987Z,100.00
2019-01-29T10:00:34.245Z,100.00
2019-01-29T10:03:04.260Z,100.00
2019-01-29T10:05:34.210Z,100.00
2019-01-29T10:08:04.537Z,98.53
2019-01-29T10:10:33.851Z,100.00
2019-01-29T10:13:03.191Z,100.00
2019-01-29T10:15:35.010Z,100.00
2019-01-29T10:18:05.171Z,100.00
2019-01-29T10:20:34.872Z,99.92
2019-01-29T10:23:04.778Z,96.26
2019-01-29T10:25:37.767Z,87.13
2019-01-29T10:28:05.194Z,91.98
2019-01-29T10:30:34.478Z,95.26
2019-01-29T10:33:04.218Z,95.98
2019-01-29T10:35:33.978Z,95.98
2019-01-29T10:38:03.228Z,94.31
2019-01-29T10:40:32.606Z,93.26
2019-01-29T10:43:02.182Z,93.42
2019-01-29T10:45:32.870Z,90.24
2019-01-29T10:48:02.177Z,88.38
2019-01-29T10:50:32.414Z,90.43
2019-01-29T10:53:02.113Z,87.78
2019-01-29T10:55:31.401Z,88.73
2019-01-29T10:58:00.726Z,89.03
2019-01-29T11:00:39.027Z,89.45
2019-01-29T11:03:09.680Z,85.87
2019-01-29T11:05:39.052Z,87.52
2019-01-29T11:08:08.389Z,89.43
2019-01-29T11:10:37.679Z,89.43
2019-01-29T11:13:07.403Z,87.89
2019-01-29T11:15:41.808Z,85.76
2019-01-29T11:18:13.132Z,84.79
2019-01-29T11:20:42.759Z,84.79
2019-01-29T11:23:12.059Z,82.62
2019-01-29T11:25:41.686Z,77.38
2019-01-29T11:28:11.125Z,77.38
2019-01-29T11:30:41.343Z,73.03
2019-01-29T11:33:10.715Z,67.60
2019-01-29T11:35:40.643Z,65.67
2019-01-29T11:38:10.705Z,60.75
2019-01-29T11:40:40.123Z,60.58
2019-01-29T11:43:09.844Z,58.86
2019-01-29T11:45:42.220Z,62.57
2019-01-29T11:48:11.547Z,63.46
2019-01-29T11:50:40.828Z,61.51
2019-01-29T11:53:10.206Z,66.45
2019-01-29T11:55:39.720Z,74.90
2019-01-29T11:58:09.059Z,74.90
2019-01-29T12:00:41.144Z,73.61
2019-01-29T12:03:10.465Z,72.47
2019-01-29T12:05:39.771Z,71.34
2019-01-29T12:08:09.394Z,71.08
2019-01-29T12:10:39.068Z,73.76
2019-01-29T12:13:08.427Z,72.31
2019-01-29T12:15:37.881Z,71.76
2019-01-29T12:18:07.588Z,66.85
2019-01-29T12:20:37.068Z,67.07
2019-01-29T12:23:06.613Z,66.94
2019-01-29T12:25:36.180Z,69.15
2019-01-29T12:28:06.018Z,69.15
2019-01-29T12:30:35.538Z,68.12
2019-01-29T12:33:06.978Z,64.46
2019-01-29T12:35:36.341Z,64.46
2019-01-29T12:38:05.842Z,65.66
2019-01-29T12:40:37.039Z,65.41
2019-01-29T12:43:06.665Z,65.41
2019-01-29T12:45:36.076Z,66.85
2019-01-29T12:48:06.034Z,67.25
2019-01-29T12:50:36.125Z,64.97
2019-01-29T12:53:07.665Z,64.47
2019-01-29T12:55:37.614Z,67.57
2019-01-29T12:58:07.521Z,68.09
2019-01-29T13:00:38.602Z,68.33
2019-01-29T13:03:08.312Z,67.69
2019-01-29T13:05:37.614Z,65.91
2019-01-29T13:08:07.523Z,66.74
2019-01-29T13:10:36.896Z,67.25
2019-01-29T13:13:06.729Z,67.24
2019-01-29T13:15:36.436Z,70.35
2019-01-29T13:18:05.988Z,69.17
2019-01-29T13:20:35.527Z,70.29
2019-01-29T13:23:05.442Z,70.93
2019-01-29T13:25:34.914Z,70.21
2019-01-29T13:28:05.440Z,71.11
2019-01-29T13:30:36.985Z,71.16
2019-01-29T13:33:09.210Z,71.14
2019-01-29T13:35:39.926Z,68.91
2019-01-29T13:38:10.653Z,67.52
2019-01-29T13:40:40.306Z,63.12
2019-01-29T13:43:09.727Z,63.12
2019-01-29T13:45:39.965Z,63.10
2019-01-29T13:48:09.881Z,58.96
2019-01-29T13:50:45.373Z,59.10
2019-01-29T13:53:14.658Z,63.37
2019-01-29T13:55:43.946Z,63.37
2019-01-29T13:58:13.506Z,64.57
2019-01-29T14:00:42.941Z,64.02
2019-01-29T14:03:13.269Z,64.08
2019-01-29T14:05:42.952Z,62.95
2019-01-29T14:08:12.293Z,63.27
2019-01-29T14:10:41.576Z,63.27
2019-01-29T14:13:10.876Z,65.58
2019-01-29T14:15:41.955Z,65.16
2019-01-29T14:18:12.097Z,67.77
2019-01-29T14:20:41.545Z,69.71
2019-01-29T14:23:10.904Z,68.95
2019-01-29T14:25:40.196Z,71.67
2019-01-29T14:28:09.616Z,72.00
2019-01-29T14:30:39.753Z,72.85
2019-01-29T14:33:09.078Z,75.01
2019-01-29T14:35:38.431Z,75.91
2019-01-29T14:38:16.491Z,77.01
2019-01-29T14:40:45.860Z,76.46
2019-01-29T14:43:20.932Z,76.15
2019-01-29T14:45:50.245Z,75.66
2019-01-29T14:48:19.566Z,75.33
2019-01-29T14:50:48.952Z,75.31
2019-01-29T14:53:18.368Z,75.52
2019-01-29T14:55:47.627Z,74.75
2019-01-29T14:58:17.010Z,74.35
2019-01-29T15:00:47.020Z,74.04
2019-01-29T15:03:16.441Z,74.31
2019-01-29T15:05:45.710Z,74.56
2019-01-29T15:08:15.204Z,74.67
2019-01-29T15:10:44.949Z,74.63
2019-01-29T15:13:14.239Z,74.85
2019-01-29T15:15:45.216Z,74.17
2019-01-29T15:18:16.303Z,72.97
2019-01-29T15:20:45.727Z,74.15
2019-01-29T15:23:15.160Z,74.02
2019-01-29T15:25:44.636Z,74.50
2019-01-29T15:28:13.942Z,75.35
2019-01-29T15:30:43.205Z,74.31
2019-01-29T15:33:12.684Z,75.19
2019-01-29T15:35:41.970Z,78.49
2019-01-29T15:38:11.284Z,87.74
2019-01-29T15:40:40.629Z,88.71
2019-01-29T15:43:10.359Z,83.48
2019-01-29T15:45:40.261Z,80.49
2019-01-29T15:48:09.706Z,84.06
2019-01-29T15:50:39.351Z,83.88
2019-01-29T15:53:08.893Z,86.05
2019-01-29T15:55:38.233Z,85.20
2019-01-29T15:58:08.712Z,82.11
2019-01-29T16:00:39.650Z,83.82
2019-01-29T16:03:09.076Z,80.94
2019-01-29T16:05:42.384Z,82.54
2019-01-29T16:08:15.369Z,83.04
2019-01-29T16:10:46.506Z,83.47
2019-01-29T16:13:15.799Z,84.26
2019-01-29T16:15:45.423Z,83.59
2019-01-29T16:18:14.830Z,84.50
2019-01-29T16:20:44.199Z,83.27
2019-01-29T16:23:13.527Z,82.99
2019-01-29T16:25:42.983Z,83.13
2019-01-29T16:28:12.364Z,84.16
2019-01-29T16:30:41.729Z,85.72
2019-01-29T16:33:11.106Z,85.76
2019-01-29T16:35:44.330Z,86.75
2019-01-29T16:38:14.065Z,87.56
2019-01-29T16:40:45.492Z,88.62
2019-01-29T16:43:15.107Z,88.39
2019-01-29T16:45:44.479Z,87.37
2019-01-29T16:48:13.827Z,87.40
2019-01-29T16:50:43.130Z,87.71
2019-01-29T16:53:12.482Z,89.24
2019-01-29T16:55:41.874Z,89.22
2019-01-29T16:58:11.224Z,90.32
2019-01-29T17:00:42.675Z,90.74
2019-01-29T17:03:11.984Z,90.70
2019-01-29T17:05:41.368Z,90.24
2019-01-29T17:08:12.040Z,91.08
2019-01-29T17:10:41.623Z,90.41
2019-01-29T17:13:10.927Z,90.39
2019-01-29T17:15:40.291Z,91.07
2019-01-29T17:18:12.124Z,91.05
2019-01-29T17:20:44.340Z,90.81
2019-01-29T17:23:13.808Z,90.68
2019-01-29T17:25:43.525Z,90.72
2019-01-29T17:28:12.811Z,91.27
2019-01-29T17:30:46.256Z,91.42
2019-01-29T17:33:17.957Z,91.10
2019-01-29T17:35:47.811Z,91.01
2019-01-29T17:38:17.191Z,92.12
2019-01-29T17:40:47.024Z,93.14
2019-01-29T17:43:16.681Z,93.47
2019-01-29T17:45:49.142Z,94.00
2019-01-29T17:48:18.729Z,94.69
2019-01-29T17:50:49.142Z,94.33
2019-01-29T17:53:18.423Z,94.91
2019-01-29T17:55:48.102Z,95.88
2019-01-29T17:58:17.393Z,95.78
2019-01-29T18:00:48.605Z,95.44
2019-01-29T18:03:18.043Z,95.50
2019-01-29T18:05:47.409Z,95.95
2019-01-29T18:08:16.726Z,96.94
2019-01-29T18:10:46.451Z,97.21
2019-01-29T18:13:15.774Z,97.30
2019-01-29T18:15:45.081Z,97.39
2019-01-29T18:18:14.387Z,98.44
2019-01-29T18:20:43.884Z,98.09
2019-01-29T18:23:13.175Z,98.41
2019-01-29T18:25:42.498Z,98.83
2019-01-29T18:28:11.783Z,98.54
2019-01-29T18:30:41.430Z,98.40
2019-01-29T18:33:10.710Z,99.37
2019-01-29T18:35:40.027Z,99.52
2019-01-29T18:38:09.444Z,99.53
2019-01-29T18:40:41.917Z,99.63
2019-01-29T18:43:11.247Z,100.00
2019-01-29T18:45:40.614Z,100.00
2019-01-29T18:48:09.927Z,100.00
2019-01-29T18:50:39.233Z,100.00
2019-01-29T18:53:08.613Z,100.00
2019-01-29T18:55:37.997Z,100.00
2019-01-29T18:58:11.925Z,100.00
2019-01-29T19:00:38.701Z,100.00
2019-01-29T19:03:08.091Z,100.00
2019-01-29T19:05:37.491Z,100.00
2019-01-29T19:08:06.879Z,100.00
2019-01-29T19:10:36.606Z,100.00
2019-01-29T19:13:07.306Z,100.00
2019-01-29T19:15:36.680Z,100.00
2019-01-29T19:18:06.454Z,100.00
2019-01-29T19:20:35.832Z,100.00
2019-01-29T19:23:05.867Z,100.00
2019-01-29T19:25:35.177Z,100.00
2019-01-29T19:28:04.950Z,100.00
2019-01-29T19:30:34.625Z,100.00
2019-01-29T19:33:04.079Z,100.00
2019-01-29T19:35:33.364Z,100.00
2019-01-29T19:38:02.841Z,100.00
2019-01-29T19:40:32.221Z,100.00
2019-01-29T19:43:01.537Z,100.00
2019-01-29T19:45:35.503Z,100.00
2019-01-29T19:48:06.519Z,100.00
2019-01-29T19:50:36.602Z,100.00
2019-01-29T19:53:05.901Z,100.00
2019-01-29T19:55:35.681Z,100.00
2019-01-29T19:58:09.123Z,100.00
2019-01-29T20:00:41.481Z,100.00
2019-01-29T20:03:11.178Z,100.00
2019-01-29T20:05:40.496Z,100.00
2019-01-29T20:08:10.651Z,100.00
2019-01-29T20:10:40.019Z,100.00
2019-01-29T20:13:11.271Z,100.00
2019-01-29T20:15:40.716Z,100.00
2019-01-29T20:18:10.402Z,100.00
2019-01-29T20:20:41.551Z,100.00
2019-01-29T20:23:11.077Z,100.00
2019-01-29T20:25:40.437Z,100.00
2019-01-29T20:28:10.482Z,100.00
2019-01-29T20:30:40.635Z,100.00
2019-01-29T20:33:10.941Z,100.00
2019-01-29T20:35:40.589Z,100.00
2019-01-29T20:38:10.045Z,100.00
2019-01-29T20:40:39.610Z,100.00
2019-01-29T20:43:09.185Z,100.00
2019-01-29T20:45:38.578Z,100.00
2019-01-29T20:48:07.860Z,99.88
2019-01-29T20:50:37.663Z,99.55
2019-01-29T20:53:06.932Z,98.92
2019-01-29T20:55:36.318Z,98.90
2019-01-29T20:58:06.100Z,98.08
2019-01-29T21:00:40.813Z,97.78
2019-01-29T21:03:10.088Z,98.10
2019-01-29T21:05:39.469Z,97.81
2019-01-29T21:08:08.827Z,96.87
2019-01-29T21:10:38.186Z,97.40
2019-01-29T21:13:07.540Z,97.81
2019-01-29T21:15:38.555Z,97.35
2019-01-29T21:18:07.942Z,97.46
2019-01-29T21:20:37.247Z,97.92
2019-01-29T21:23:06.697Z,97.40
2019-01-29T21:25:36.079Z,97.37
2019-01-29T21:28:05.853Z,97.06
2019-01-29T21:30:40.493Z,97.05
2019-01-29T21:33:09.804Z,97.46
2019-01-29T21:35:39.216Z,97.52
2019-01-29T21:38:08.927Z,97.35
2019-01-29T21:40:38.309Z,98.02
2019-01-29T21:43:07.658Z,99.00
2019-01-29T21:45:37.047Z,98.85
2019-01-29T21:48:06.944Z,98.43
2019-01-29T21:50:36.889Z,98.49
2019-01-29T21:53:06.519Z,98.44
2019-01-29T21:55:35.819Z,98.57
2019-01-29T21:58:06.357Z,99.43
2019-01-29T22:00:38.742Z,100.00
2019-01-29T22:03:08.605Z,100.00
2019-01-29T22:05:38.254Z,100.00
2019-01-29T22:08:08.492Z,100.00
2019-01-29T22:10:38.255Z,100.00
2019-01-29T22:13:08.712Z,100.00
2019-01-29T22:15:38.071Z,100.00
2019-01-29T22:18:08.435Z,100.00
2019-01-29T22:20:37.781Z,100.00
2019-01-29T22:23:07.823Z,100.00
2019-01-29T22:25:37.338Z,100.00
2019-01-29T22:28:07.588Z,100.00
2019-01-29T22:30:40.025Z,100.00
2019-01-29T22:33:09.407Z,100.00
2019-01-29T22:35:38.792Z,100.00
2019-01-29T22:38:08.177Z,100.00
2019-01-29T22:40:37.528Z,100.00
2019-01-29T22:43:07.090Z,100.00
2019-01-29T22:45:36.392Z,100.00
2019-01-29T22:48:06.746Z,100.00
2019-01-29T22:50:40.946Z,100.00
2019-01-29T22:53:10.688Z,100.00
2019-01-29T22:55:40.093Z,100.00
2019-01-29T22:58:10.019Z,100.00
2019-01-29T23:00:58.862Z,100.00
2019-01-29T23:03:34.270Z,100.00
2019-01-29T23:06:06.609Z,100.00
2019-01-29T23:08:35.926Z,100.00
2019-01-29T23:11:06.066Z,100.00
2019-01-29T23:13:35.642Z,100.00
2019-01-29T23:16:06.066Z,100.00
2019-01-29T23:18:35.379Z,100.00
2019-01-29T23:21:04.770Z,100.00
2019-01-29T23:23:34.063Z,100.00
2019-01-29T23:26:03.591Z,100.00
2019-01-29T23:28:32.894Z,100.00
2019-01-29T23:31:02.217Z,100.00
2019-01-29T23:33:31.496Z,100.00
2019-01-29T23:36:00.807Z,100.00
2019-01-29T23:38:30.469Z,100.00
2019-01-29T23:40:59.780Z,100.00
2019-01-29T23:43:29.295Z,100.00
2019-01-29T23:45:58.606Z,100.00
2019-01-29T23:48:27.929Z,100.00
2019-01-29T23:50:57.434Z,100.00
2019-01-29T23:53:26.751Z,100.00
2019-01-29T23:55:56.128Z,100.00
2019-01-29T23:58:25.434Z,100.00
